createdAt,value
2019-03-05T00:00:43.544Z,914.62
2019-03-05T00:01:43.534Z,914.64
2019-03-05T00:02:43.473Z,914.65
2019-03-05T00:03:43.433Z,914.66
2019-03-05T00:04:43.423Z,914.71
2019-03-05T00:05:43.388Z,914.68
2019-03-05T00:06:43.485Z,914.70
2019-03-05T00:07:43.318Z,914.72
2019-03-05T00:08:43.274Z,914.70
2019-03-05T00:09:43.247Z,914.75
2019-03-05T00:10:43.203Z,914.72
2019-03-05T00:11:43.192Z,914.73
2019-03-05T00:12:43.299Z,914.76
2019-03-05T00:13:43.118Z,914.79
2019-03-05T00:14:43.075Z,914.78
2019-03-05T00:15:43.046Z,914.81
2019-03-05T00:16:43.036Z,914.81
2019-03-05T00:17:42.976Z,914.80
2019-03-05T00:18:43.107Z,914.83
2019-03-05T00:19:42.923Z,914.85
2019-03-05T00:20:42.889Z,914.87
2019-03-05T00:21:42.875Z,914.86
2019-03-05T00:22:42.824Z,914.85
2019-03-05T00:23:42.791Z,914.91
2019-03-05T00:24:42.755Z,914.88
2019-03-05T00:25:42.743Z,914.93
2019-03-05T00:26:42.688Z,914.92
2019-03-05T00:27:42.690Z,914.96
2019-03-05T00:28:42.616Z,914.99
2019-03-05T00:29:42.948Z,914.97
2019-03-05T00:30:42.565Z,915.05
2019-03-05T00:31:42.534Z,915.02
2019-03-05T00:32:42.493Z,915.04
2019-03-05T00:33:42.451Z,915.06
2019-03-05T00:34:42.430Z,915.09
2019-03-05T00:35:42.400Z,915.15
2019-03-05T00:36:42.371Z,915.14
2019-03-05T00:37:42.316Z,915.17
2019-03-05T00:38:42.332Z,915.20
2019-03-05T00:39:42.280Z,915.24
2019-03-05T00:41:42.197Z,915.29
2019-03-05T00:42:42.168Z,915.31
2019-03-05T00:43:42.124Z,915.33
2019-03-05T00:44:42.109Z,915.35
2019-03-05T00:46:42.047Z,915.36
2019-03-05T00:47:42.016Z,915.40
2019-03-05T00:48:41.956Z,915.39
2019-03-05T00:49:41.939Z,915.41
2019-03-05T00:50:41.915Z,915.38
2019-03-05T00:51:41.876Z,915.40
2019-03-05T00:52:41.853Z,915.44
2019-03-05T00:53:41.819Z,915.46
2019-03-05T00:54:41.780Z,915.49
2019-03-05T00:55:41.737Z,915.47
2019-03-05T00:56:41.707Z,915.50
2019-03-05T00:57:41.672Z,915.46
2019-03-05T00:58:41.649Z,915.46
2019-03-05T00:59:41.616Z,915.50
2019-03-05T01:00:41.559Z,915.48
2019-03-05T01:01:41.709Z,915.48
2019-03-05T01:02:41.531Z,915.53
2019-03-05T01:03:41.560Z,915.50
2019-03-05T01:04:41.464Z,915.52
2019-03-05T01:05:41.427Z,915.56
2019-03-05T01:06:41.410Z,915.53
2019-03-05T01:07:42.568Z,915.56
2019-03-05T01:08:41.378Z,915.57
2019-03-05T01:09:41.288Z,915.57
2019-03-05T01:10:41.233Z,915.57
2019-03-05T01:11:41.232Z,915.59
2019-03-05T01:12:41.535Z,915.58
2019-03-05T01:13:41.249Z,915.65
2019-03-05T01:14:41.123Z,915.64
2019-03-05T01:15:41.104Z,915.64
2019-03-05T01:16:41.070Z,915.63
2019-03-05T01:17:41.019Z,915.64
2019-03-05T01:19:40.990Z,915.58
2019-03-05T01:20:40.944Z,915.64
2019-03-05T01:21:40.894Z,915.63
2019-03-05T01:22:40.863Z,915.62
2019-03-05T01:23:40.846Z,915.61
2019-03-05T01:24:40.802Z,915.61
2019-03-05T01:25:40.746Z,915.61
2019-03-05T01:26:40.737Z,915.61
2019-03-05T01:27:40.725Z,915.66
2019-03-05T01:28:40.669Z,915.68
2019-03-05T01:29:40.635Z,915.71
2019-03-05T01:30:40.593Z,915.72
2019-03-05T01:31:40.573Z,915.74
2019-03-05T01:32:40.536Z,915.73
2019-03-05T01:33:40.483Z,915.76
2019-03-05T01:34:40.611Z,915.76
2019-03-05T01:35:40.449Z,915.80
2019-03-05T01:36:40.413Z,915.82
2019-03-05T01:37:40.376Z,915.84
2019-03-05T01:38:40.368Z,915.87
2019-03-05T01:39:40.310Z,915.87
2019-03-05T01:40:40.266Z,915.91
2019-03-05T01:41:40.248Z,915.90
2019-03-05T01:42:40.277Z,915.97
2019-03-05T01:43:40.182Z,915.93
2019-03-05T01:44:40.155Z,915.92
2019-03-05T01:45:40.239Z,915.95
2019-03-05T01:46:40.083Z,915.93
2019-03-05T01:47:40.090Z,915.96
2019-03-05T01:48:40.006Z,915.97
2019-03-05T01:49:39.990Z,915.97
2019-03-05T01:50:39.969Z,915.98
2019-03-05T01:51:40.063Z,915.99
2019-03-05T01:52:39.891Z,915.97
2019-03-05T01:53:39.836Z,916.00
2019-03-05T01:54:39.813Z,916.00
2019-03-05T01:55:39.789Z,916.01
2019-03-05T01:58:39.711Z,916.02
2019-03-05T01:59:39.652Z,916.04
2019-03-05T02:00:39.595Z,916.03
2019-03-05T02:01:39.580Z,915.99
2019-03-05T02:02:39.605Z,916.00
2019-03-05T02:03:39.519Z,916.03
2019-03-05T02:04:39.504Z,916.02
2019-03-05T02:05:39.442Z,916.00
2019-03-05T02:06:39.452Z,915.97
2019-03-05T02:07:39.384Z,916.01
2019-03-05T02:08:39.345Z,916.01
2019-03-05T02:09:39.358Z,916.01
2019-03-05T02:10:39.298Z,916.01
2019-03-05T02:11:39.259Z,916.02
2019-03-05T02:12:39.217Z,916.04
2019-03-05T02:13:39.361Z,916.01
2019-03-05T02:14:39.167Z,915.98
2019-03-05T02:15:39.104Z,915.99
2019-03-05T02:16:39.106Z,915.99
2019-03-05T02:17:39.051Z,915.98
2019-03-05T02:18:39.016Z,915.95
2019-03-05T02:19:38.999Z,915.93
2019-03-05T02:20:38.960Z,915.92
2019-03-05T02:21:38.976Z,915.92
2019-03-05T02:22:38.889Z,915.89
2019-03-05T02:23:38.861Z,915.86
2019-03-05T02:24:38.837Z,915.88
2019-03-05T02:26:38.776Z,915.85
2019-03-05T02:27:38.740Z,915.84
2019-03-05T02:28:38.725Z,915.86
2019-03-05T02:29:38.761Z,915.80
2019-03-05T02:30:38.619Z,915.78
2019-03-05T02:31:38.598Z,915.79
2019-03-05T02:32:38.597Z,915.75
2019-03-05T02:33:38.565Z,915.78
2019-03-05T02:34:38.498Z,915.74
2019-03-05T02:35:38.672Z,915.71
2019-03-05T02:36:38.462Z,915.69
2019-03-05T02:37:38.409Z,915.71
2019-03-05T02:38:38.368Z,915.68
2019-03-05T02:39:38.337Z,915.64
2019-03-05T02:40:38.290Z,915.68
2019-03-05T02:41:38.319Z,915.65
2019-03-05T02:42:38.241Z,915.62
2019-03-05T02:43:38.206Z,915.60
2019-03-05T02:44:38.203Z,915.62
2019-03-05T02:45:38.129Z,915.60
2019-03-05T02:46:38.112Z,915.57
2019-03-05T02:47:38.084Z,915.57
2019-03-05T02:48:38.039Z,915.57
2019-03-05T02:49:38.019Z,915.55
2019-03-05T02:50:37.956Z,915.57
2019-03-05T02:51:37.949Z,915.57
2019-03-05T02:52:37.917Z,915.52
2019-03-05T02:53:37.874Z,915.51
2019-03-05T02:54:37.854Z,915.46
2019-03-05T02:55:37.821Z,915.47
2019-03-05T02:56:37.757Z,915.42
2019-03-05T02:57:37.742Z,915.41
2019-03-05T02:58:37.708Z,915.38
2019-03-05T02:59:37.662Z,915.38
2019-03-05T03:00:37.649Z,915.35
2019-03-05T03:01:37.622Z,915.34
2019-03-05T03:02:37.593Z,915.35
2019-03-05T03:03:37.575Z,915.34
2019-03-05T03:04:37.512Z,915.34
2019-03-05T03:05:37.481Z,915.32
2019-03-05T03:06:37.622Z,915.32
2019-03-05T03:07:37.418Z,915.34
2019-03-05T03:08:37.394Z,915.30
2019-03-05T03:09:37.341Z,915.29
2019-03-05T03:10:37.300Z,915.31
2019-03-05T03:11:37.278Z,915.31
2019-03-05T03:12:37.395Z,915.30
2019-03-05T03:13:37.223Z,915.32
2019-03-05T03:14:37.181Z,915.31
2019-03-05T03:15:37.179Z,915.28
2019-03-05T03:16:37.121Z,915.29
2019-03-05T03:17:37.101Z,915.30
2019-03-05T03:18:37.231Z,915.28
2019-03-05T03:19:37.019Z,915.27
2019-03-05T03:20:36.991Z,915.31
2019-03-05T03:21:36.981Z,915.24
2019-03-05T03:22:36.971Z,915.21
2019-03-05T03:23:37.014Z,915.21
2019-03-05T03:24:36.869Z,915.21
2019-03-05T03:25:36.822Z,915.17
2019-03-05T03:26:36.772Z,915.14
2019-03-05T03:27:36.769Z,915.11
2019-03-05T03:28:36.732Z,915.12
2019-03-05T03:29:36.696Z,915.08
2019-03-05T03:30:36.700Z,915.07
2019-03-05T03:31:36.611Z,915.04
2019-03-05T03:32:36.617Z,915.03
2019-03-05T03:33:36.572Z,915.00
2019-03-05T03:34:36.546Z,914.98
2019-03-05T03:35:36.480Z,914.93
2019-03-05T03:36:36.474Z,914.91
2019-03-05T03:37:36.416Z,914.89
2019-03-05T03:38:36.403Z,914.86
2019-03-05T03:39:36.358Z,914.85
2019-03-05T03:40:36.345Z,914.87
2019-03-05T03:41:36.317Z,914.89
2019-03-05T03:42:36.275Z,914.90
2019-03-05T03:43:36.231Z,914.89
2019-03-05T03:44:36.188Z,914.92
2019-03-05T03:45:36.164Z,914.92
2019-03-05T03:46:36.139Z,914.93
2019-03-05T03:47:36.100Z,914.91
2019-03-05T03:48:36.071Z,914.95
2019-03-05T03:49:36.034Z,914.91
2019-03-05T03:50:36.005Z,914.89
2019-03-05T03:51:35.951Z,914.86
2019-03-05T03:52:35.917Z,914.89
2019-03-05T03:53:35.907Z,914.90
2019-03-05T03:54:35.872Z,914.88
2019-03-05T03:55:35.840Z,914.86
2019-03-05T03:56:35.809Z,914.88
2019-03-05T03:57:35.866Z,914.88
2019-03-05T03:58:35.745Z,914.84
2019-03-05T03:59:35.688Z,914.88
2019-03-05T04:00:35.678Z,914.83
2019-03-05T04:01:35.657Z,914.82
2019-03-05T04:02:35.611Z,914.83
2019-03-05T04:03:35.584Z,914.82
2019-03-05T04:04:35.544Z,914.81
2019-03-05T04:05:35.491Z,914.82
2019-03-05T04:06:35.495Z,914.81
2019-03-05T04:07:35.435Z,914.81
2019-03-05T04:08:35.414Z,914.80
2019-03-05T04:09:35.375Z,914.82
2019-03-05T04:10:35.496Z,914.84
2019-03-05T04:11:35.311Z,914.81
2019-03-05T04:12:35.261Z,914.82
2019-03-05T04:13:35.238Z,914.81
2019-03-05T04:14:35.209Z,914.80
2019-03-05T04:15:35.170Z,914.79
2019-03-05T04:16:35.129Z,914.81
2019-03-05T04:17:35.116Z,914.80
2019-03-05T04:18:35.080Z,914.82
2019-03-05T04:19:35.048Z,914.78
2019-03-05T04:20:35.036Z,914.78
2019-03-05T04:21:35.005Z,914.79
2019-03-05T04:22:34.931Z,914.79
2019-03-05T04:23:34.919Z,914.76
2019-03-05T04:24:34.913Z,914.79
2019-03-05T04:25:34.869Z,914.79
2019-03-05T04:26:34.828Z,914.79
2019-03-05T04:27:34.787Z,914.83
2019-03-05T04:28:34.752Z,914.80
2019-03-05T04:29:34.727Z,914.78
2019-03-05T04:30:34.677Z,914.80
2019-03-05T04:31:34.650Z,914.84
2019-03-05T04:32:34.610Z,914.81
2019-03-05T04:33:34.584Z,914.79
2019-03-05T04:34:34.534Z,914.80
2019-03-05T04:35:34.524Z,914.78
2019-03-05T04:36:34.512Z,914.80
2019-03-05T04:37:34.461Z,914.82
2019-03-05T04:38:34.425Z,914.78
2019-03-05T04:39:34.388Z,914.77
2019-03-05T04:40:34.356Z,914.77
2019-03-05T04:41:34.307Z,914.79
2019-03-05T04:42:34.438Z,914.79
2019-03-05T04:43:34.269Z,914.74
2019-03-05T04:44:34.212Z,914.78
2019-03-05T04:45:34.195Z,914.71
2019-03-05T04:46:34.157Z,914.70
2019-03-05T04:47:34.122Z,914.69
2019-03-05T04:48:34.228Z,914.68
2019-03-05T04:49:34.055Z,914.67
2019-03-05T04:50:34.024Z,914.66
2019-03-05T04:51:33.992Z,914.66
2019-03-05T04:52:33.960Z,914.65
2019-03-05T04:53:33.935Z,914.63
2019-03-05T04:54:33.892Z,914.60
2019-03-05T04:55:33.863Z,914.57
2019-03-05T04:56:33.819Z,914.55
2019-03-05T04:57:33.808Z,914.55
2019-03-05T04:58:33.859Z,914.51
2019-03-05T04:59:33.720Z,914.49
2019-03-05T05:00:33.686Z,914.49
2019-03-05T05:01:33.661Z,914.47
2019-03-05T05:02:33.657Z,914.43
2019-03-05T05:03:33.597Z,914.42
2019-03-05T05:04:33.561Z,914.38
2019-03-05T05:05:33.529Z,914.38
2019-03-05T05:06:33.497Z,914.38
2019-03-05T05:07:33.462Z,914.36
2019-03-05T05:08:33.461Z,914.39
2019-03-05T05:09:33.388Z,914.37
2019-03-05T05:10:33.341Z,914.37
2019-03-05T05:11:33.334Z,914.37
2019-03-05T05:12:33.300Z,914.30
2019-03-05T05:13:33.260Z,914.34
2019-03-05T05:14:33.221Z,914.29
2019-03-05T05:15:33.197Z,914.27
2019-03-05T05:16:33.161Z,914.25
2019-03-05T05:17:33.135Z,914.27
2019-03-05T05:18:33.107Z,914.24
2019-03-05T05:19:33.073Z,914.24
2019-03-05T05:20:33.026Z,914.19
2019-03-05T05:21:32.978Z,914.14
2019-03-05T05:22:32.975Z,914.14
2019-03-05T05:23:32.933Z,914.09
2019-03-05T05:24:32.899Z,914.10
2019-03-05T05:25:32.873Z,914.07
2019-03-05T05:26:32.852Z,914.07
2019-03-05T05:27:32.808Z,914.09
2019-03-05T05:28:32.791Z,914.03
2019-03-05T05:29:32.741Z,914.04
2019-03-05T05:30:32.734Z,914.03
2019-03-05T05:31:32.665Z,914.03
2019-03-05T05:32:32.648Z,914.04
2019-03-05T05:33:32.581Z,914.00
2019-03-05T05:34:32.565Z,914.01
2019-03-05T05:35:32.539Z,914.01
2019-03-05T05:36:32.496Z,914.00
2019-03-05T05:37:32.479Z,913.96
2019-03-05T05:38:32.441Z,913.96
2019-03-05T05:39:32.405Z,913.99
2019-03-05T05:40:32.377Z,913.95
2019-03-05T05:41:32.491Z,913.94
2019-03-05T05:42:32.293Z,913.89
2019-03-05T05:43:32.269Z,913.89
2019-03-05T05:44:32.248Z,913.86
2019-03-05T05:45:32.215Z,913.83
2019-03-05T05:46:32.186Z,913.81
2019-03-05T05:47:32.234Z,913.82
2019-03-05T05:48:32.107Z,913.77
2019-03-05T05:49:32.063Z,913.75
2019-03-05T05:50:32.034Z,913.74
2019-03-05T05:51:31.985Z,913.77
2019-03-05T05:52:31.959Z,913.71
2019-03-05T05:53:31.934Z,913.74
2019-03-05T05:54:31.923Z,913.71
2019-03-05T05:55:31.871Z,913.72
2019-03-05T05:56:31.832Z,913.69
2019-03-05T05:57:31.928Z,913.64
2019-03-05T05:58:31.774Z,913.68
2019-03-05T05:59:31.735Z,913.70
2019-03-05T06:00:31.721Z,913.69
2019-03-05T06:01:31.657Z,913.67
2019-03-05T06:02:31.647Z,913.69
2019-03-05T06:03:31.594Z,913.70
2019-03-05T06:04:31.582Z,913.69
2019-03-05T06:05:31.551Z,913.70
2019-03-05T06:06:31.508Z,913.71
2019-03-05T06:07:31.476Z,913.72
2019-03-05T06:08:31.443Z,913.74
2019-03-05T06:09:31.398Z,913.71
2019-03-05T06:10:31.380Z,913.72
2019-03-05T06:11:31.346Z,913.73
2019-03-05T06:12:31.307Z,913.72
2019-03-05T06:13:31.588Z,913.73
2019-03-05T06:14:31.236Z,913.71
2019-03-05T06:15:31.267Z,913.71
2019-03-05T06:16:31.189Z,913.72
2019-03-05T06:17:31.128Z,913.69
2019-03-05T06:18:31.096Z,913.67
2019-03-05T06:19:31.228Z,913.69
2019-03-05T06:20:31.049Z,913.64
2019-03-05T06:21:31.020Z,913.63
2019-03-05T06:22:30.971Z,913.66
2019-03-05T06:23:30.968Z,913.68
2019-03-05T06:24:30.949Z,913.64
2019-03-05T06:25:30.884Z,913.64
2019-03-05T06:26:30.847Z,913.65
2019-03-05T06:27:30.829Z,913.67
2019-03-05T06:28:30.768Z,913.65
2019-03-05T06:29:30.746Z,913.65
2019-03-05T06:30:30.720Z,913.62
2019-03-05T06:31:30.686Z,913.66
2019-03-05T06:32:30.633Z,913.61
2019-03-05T06:33:30.613Z,913.66
2019-03-05T06:34:30.578Z,913.65
2019-03-05T06:35:30.697Z,913.66
2019-03-05T06:36:30.504Z,913.66
2019-03-05T06:37:32.915Z,913.69
2019-03-05T06:38:30.429Z,913.67
2019-03-05T06:39:30.436Z,913.70
2019-03-05T06:40:30.366Z,913.67
2019-03-05T06:41:30.348Z,913.64
2019-03-05T06:42:30.313Z,913.65
2019-03-05T06:43:30.275Z,913.66
2019-03-05T06:44:30.259Z,913.64
2019-03-05T06:45:30.225Z,913.63
2019-03-05T06:46:30.185Z,913.67
2019-03-05T06:47:30.131Z,913.66
2019-03-05T06:48:30.098Z,913.65
2019-03-05T06:49:30.093Z,913.62
2019-03-05T06:50:30.050Z,913.65
2019-03-05T06:51:30.021Z,913.63
2019-03-05T06:52:29.987Z,913.66
2019-03-05T06:53:29.940Z,913.62
2019-03-05T06:54:29.898Z,913.63
2019-03-05T06:55:29.890Z,913.59
2019-03-05T06:56:29.853Z,913.62
2019-03-05T06:57:29.794Z,913.61
2019-03-05T06:58:29.785Z,913.65
2019-03-05T06:59:29.754Z,913.64
2019-03-05T07:00:29.717Z,913.65
2019-03-05T07:01:29.669Z,913.64
2019-03-05T07:02:29.653Z,913.65
2019-03-05T07:03:29.606Z,913.65
2019-03-05T07:04:29.568Z,913.63
2019-03-05T07:05:29.552Z,913.62
2019-03-05T07:06:29.518Z,913.64
2019-03-05T07:07:29.784Z,913.65
2019-03-05T07:08:29.453Z,913.70
2019-03-05T07:09:29.422Z,913.72
2019-03-05T07:10:29.413Z,913.68
2019-03-05T07:11:29.356Z,913.70
2019-03-05T07:12:29.322Z,913.73
2019-03-05T07:13:29.492Z,913.77
2019-03-05T07:14:29.233Z,913.79
2019-03-05T07:15:29.219Z,913.80
2019-03-05T07:16:29.186Z,913.78
2019-03-05T07:17:29.144Z,913.78
2019-03-05T07:18:29.103Z,913.84
2019-03-05T07:19:29.066Z,913.84
2019-03-05T07:20:29.042Z,913.84
2019-03-05T07:21:29.014Z,913.88
2019-03-05T07:22:29.016Z,913.89
2019-03-05T07:23:28.935Z,913.90
2019-03-05T07:24:28.920Z,913.89
2019-03-05T07:25:28.877Z,913.94
2019-03-05T07:26:28.850Z,913.95
2019-03-05T07:27:28.816Z,913.94
2019-03-05T07:28:28.795Z,913.98
2019-03-05T07:29:28.735Z,914.01
2019-03-05T07:30:28.719Z,914.06
2019-03-05T07:31:28.678Z,914.07
2019-03-05T07:32:28.651Z,914.09
2019-03-05T07:33:28.613Z,914.14
2019-03-05T07:34:28.593Z,914.15
2019-03-05T07:35:28.534Z,914.16
2019-03-05T07:36:28.511Z,914.15
2019-03-05T07:37:28.481Z,914.15
2019-03-05T07:38:28.447Z,914.17
2019-03-05T07:39:28.414Z,914.15
2019-03-05T07:40:28.373Z,914.18
2019-03-05T07:41:28.531Z,914.16
2019-03-05T07:42:28.324Z,914.19
2019-03-05T07:43:36.226Z,914.19
2019-03-05T07:44:28.258Z,914.21
2019-03-05T07:45:28.201Z,914.21
2019-03-05T07:46:28.198Z,914.24
2019-03-05T07:47:28.349Z,914.24
2019-03-05T07:48:29.675Z,914.23
2019-03-05T07:49:28.069Z,914.27
2019-03-05T07:50:28.037Z,914.29
2019-03-05T07:51:28.016Z,914.34
2019-03-05T07:53:27.958Z,914.35
2019-03-05T07:54:27.912Z,914.36
2019-03-05T07:55:27.874Z,914.39
2019-03-05T07:56:27.855Z,914.36
2019-03-05T07:57:27.814Z,914.37
2019-03-05T07:58:27.764Z,914.35
2019-03-05T07:59:27.749Z,914.36
2019-03-05T08:00:27.737Z,914.35
2019-03-05T08:01:27.685Z,914.35
2019-03-05T08:02:27.663Z,914.38
2019-03-05T08:03:27.601Z,914.34
2019-03-05T08:04:27.586Z,914.38
2019-03-05T08:05:27.548Z,914.36
2019-03-05T08:06:27.515Z,914.38
2019-03-05T08:07:27.548Z,914.39
2019-03-05T08:08:27.433Z,914.36
2019-03-05T08:09:27.421Z,914.39
2019-03-05T08:10:27.397Z,914.38
2019-03-05T08:11:27.365Z,914.38
2019-03-05T08:12:27.329Z,914.35
2019-03-05T08:13:27.324Z,914.38
2019-03-05T08:14:27.390Z,914.40
2019-03-05T08:15:27.208Z,914.40
2019-03-05T08:16:27.184Z,914.47
2019-03-05T08:17:27.149Z,914.48
2019-03-05T08:18:27.105Z,914.53
2019-03-05T08:19:27.081Z,914.52
2019-03-05T08:20:27.059Z,914.50
2019-03-05T08:21:27.015Z,914.53
2019-03-05T08:22:26.991Z,914.53
2019-03-05T08:23:26.943Z,914.54
2019-03-05T08:24:26.902Z,914.52
2019-03-05T08:25:26.882Z,914.59
2019-03-05T08:26:26.928Z,914.62
2019-03-05T08:27:26.831Z,914.65
2019-03-05T08:28:26.781Z,914.64
2019-03-05T08:29:26.739Z,914.65
2019-03-05T08:30:26.727Z,914.66
2019-03-05T08:31:26.680Z,914.67
2019-03-05T08:32:26.674Z,914.64
2019-03-05T08:33:26.609Z,914.65
2019-03-05T08:34:26.573Z,914.66
2019-03-05T08:35:26.891Z,914.67
2019-03-05T08:36:26.512Z,914.69
2019-03-05T08:37:26.481Z,914.71
2019-03-05T08:38:26.456Z,914.73
2019-03-05T08:39:26.411Z,914.72
2019-03-05T08:40:26.376Z,914.76
2019-03-05T08:41:27.253Z,914.76
2019-03-05T08:42:26.311Z,914.78
2019-03-05T08:43:26.278Z,914.84
2019-03-05T08:44:26.260Z,914.86
2019-03-05T08:45:29.700Z,914.86
2019-03-05T08:46:26.173Z,914.84
2019-03-05T08:47:26.240Z,914.86
2019-03-05T08:48:26.119Z,914.85
2019-03-05T08:49:26.071Z,914.89
2019-03-05T08:50:26.039Z,914.89
2019-03-05T08:51:26.005Z,914.87
2019-03-05T08:52:25.984Z,914.88
2019-03-05T08:53:25.950Z,914.91
2019-03-05T08:54:25.920Z,914.91
2019-03-05T08:55:25.885Z,914.95
2019-03-05T08:56:25.837Z,914.95
2019-03-05T08:57:25.838Z,914.95
2019-03-05T08:58:25.788Z,914.99
2019-03-05T08:59:25.749Z,914.98
2019-03-05T09:00:25.732Z,914.99
2019-03-05T09:01:25.689Z,914.98
2019-03-05T09:02:25.640Z,914.99
2019-03-05T09:03:25.612Z,915.00
2019-03-05T09:04:25.588Z,915.06
2019-03-05T09:05:25.539Z,915.05
2019-03-05T09:06:25.524Z,915.05
2019-03-05T09:07:25.484Z,915.08
2019-03-05T09:08:25.438Z,915.08
2019-03-05T09:09:25.433Z,915.09
2019-03-05T09:10:25.400Z,915.13
2019-03-05T09:11:25.357Z,915.11
2019-03-05T09:12:25.320Z,915.12
2019-03-05T09:13:32.560Z,915.14
2019-03-05T09:14:25.238Z,915.19
2019-03-05T09:15:25.206Z,915.16
2019-03-05T09:16:25.177Z,915.16
2019-03-05T09:17:25.140Z,915.14
2019-03-05T09:18:25.117Z,915.13
2019-03-05T09:19:25.082Z,915.15
2019-03-05T09:20:25.046Z,915.10
2019-03-05T09:21:25.082Z,915.11
2019-03-05T09:22:24.975Z,915.09
2019-03-05T09:23:24.939Z,915.15
2019-03-05T09:24:24.906Z,915.12
2019-03-05T09:25:24.883Z,915.18
2019-03-05T09:26:24.841Z,915.17
2019-03-05T09:27:24.818Z,915.20
2019-03-05T09:28:24.776Z,915.21
2019-03-05T09:29:24.846Z,915.22
2019-03-05T09:30:24.713Z,915.21
2019-03-05T09:31:24.685Z,915.25
2019-03-05T09:32:24.655Z,915.22
2019-03-05T09:33:24.667Z,915.18
2019-03-05T09:34:24.578Z,915.21
2019-03-05T09:35:24.558Z,915.18
2019-03-05T09:36:24.534Z,915.18
2019-03-05T09:37:24.499Z,915.18
2019-03-05T09:38:24.603Z,915.17
2019-03-05T09:39:24.414Z,915.19
2019-03-05T09:40:24.383Z,915.19
2019-03-05T09:41:24.342Z,915.18
2019-03-05T09:42:24.316Z,915.18
2019-03-05T09:43:24.272Z,915.21
2019-03-05T09:44:24.466Z,915.18
2019-03-05T09:45:24.214Z,915.23
2019-03-05T09:46:24.192Z,915.19
2019-03-05T09:47:24.140Z,915.25
2019-03-05T09:48:24.128Z,915.23
2019-03-05T09:49:24.128Z,915.25
2019-03-05T09:50:24.042Z,915.28
2019-03-05T09:51:24.024Z,915.29
2019-03-05T09:52:23.979Z,915.28
2019-03-05T09:53:23.950Z,915.32
2019-03-05T09:54:23.906Z,915.28
2019-03-05T09:55:23.888Z,915.32
2019-03-05T09:56:23.843Z,915.33
2019-03-05T09:57:23.816Z,915.28
2019-03-05T09:58:23.804Z,915.27
2019-03-05T09:59:23.753Z,915.25
2019-03-05T10:00:23.711Z,915.27
2019-03-05T10:01:23.684Z,915.28
2019-03-05T10:02:23.648Z,915.25
2019-03-05T10:03:23.616Z,915.27
2019-03-05T10:04:23.581Z,915.26
2019-03-05T10:05:23.740Z,915.30
2019-03-05T10:06:23.509Z,915.33
2019-03-05T10:07:23.482Z,915.33
2019-03-05T10:08:31.993Z,915.33
2019-03-05T10:09:25.806Z,915.34
2019-03-05T10:10:23.380Z,915.37
2019-03-05T10:11:23.486Z,915.40
2019-03-05T10:12:23.302Z,915.38
2019-03-05T10:13:23.282Z,915.44
2019-03-05T10:14:23.256Z,915.41
2019-03-05T10:15:23.215Z,915.45
2019-03-05T10:16:23.189Z,915.49
2019-03-05T10:17:23.350Z,915.48
2019-03-05T10:18:23.105Z,915.48
2019-03-05T10:19:23.073Z,915.52
2019-03-05T10:20:23.037Z,915.54
2019-03-05T10:21:23.029Z,915.54
2019-03-05T10:22:22.985Z,915.51
2019-03-05T10:23:22.950Z,915.52
2019-03-05T10:24:22.901Z,915.59
2019-03-05T10:25:22.883Z,915.59
2019-03-05T10:26:22.836Z,915.60
2019-03-05T10:27:22.815Z,915.57
2019-03-05T10:28:22.785Z,915.58
2019-03-05T10:29:22.754Z,915.60
2019-03-05T10:30:25.185Z,915.59
2019-03-05T10:31:22.683Z,915.60
2019-03-05T10:32:22.633Z,915.61
2019-03-05T10:33:22.621Z,915.63
2019-03-05T10:34:22.617Z,915.61
2019-03-05T10:35:22.547Z,915.61
2019-03-05T10:36:22.502Z,915.65
2019-03-05T10:37:22.472Z,915.63
2019-03-05T10:38:22.449Z,915.61
2019-03-05T10:39:29.898Z,915.59
2019-03-05T10:40:22.408Z,915.60
2019-03-05T10:41:22.334Z,915.63
2019-03-05T10:42:22.313Z,915.63
2019-03-05T10:43:22.269Z,915.64
2019-03-05T10:44:22.235Z,915.62
2019-03-05T10:45:22.202Z,915.65
2019-03-05T10:46:22.165Z,915.62
2019-03-05T10:47:22.144Z,915.63
2019-03-05T10:48:22.118Z,915.63
2019-03-05T10:49:22.141Z,915.62
2019-03-05T10:50:22.047Z,915.63
2019-03-05T10:51:21.998Z,915.61
2019-03-05T10:52:21.983Z,915.60
2019-03-05T10:53:21.952Z,915.61
2019-03-05T10:54:21.940Z,915.65
2019-03-05T10:55:26.320Z,915.63
2019-03-05T10:56:21.855Z,915.63
2019-03-05T10:57:21.798Z,915.61
2019-03-05T10:58:32.713Z,915.60
2019-03-05T10:59:21.733Z,915.59
2019-03-05T11:00:21.705Z,915.55
2019-03-05T11:01:21.687Z,915.59
2019-03-05T11:02:21.632Z,915.60
2019-03-05T11:03:21.633Z,915.59
2019-03-05T11:04:21.591Z,915.62
2019-03-05T11:05:21.532Z,915.63
2019-03-05T11:06:21.518Z,915.63
2019-03-05T11:07:21.476Z,915.64
2019-03-05T11:08:21.451Z,915.66
2019-03-05T11:09:21.408Z,915.62
2019-03-05T11:10:21.569Z,915.63
2019-03-05T11:11:21.344Z,915.64
2019-03-05T11:12:21.310Z,915.68
2019-03-05T11:13:21.273Z,915.68
2019-03-05T11:14:21.229Z,915.69
2019-03-05T11:15:21.196Z,915.73
2019-03-05T11:16:30.371Z,915.72
2019-03-05T11:17:21.133Z,915.75
2019-03-05T11:18:28.994Z,915.73
2019-03-05T11:19:21.065Z,915.77
2019-03-05T11:20:21.033Z,915.77
2019-03-05T11:21:21.008Z,915.78
2019-03-05T11:22:20.966Z,915.81
2019-03-05T11:23:20.944Z,915.81
2019-03-05T11:24:20.923Z,915.82
2019-03-05T11:25:20.878Z,915.83
2019-03-05T11:26:20.854Z,915.85
2019-03-05T11:27:20.817Z,915.82
2019-03-05T11:28:20.770Z,915.80
2019-03-05T11:29:20.751Z,915.84
2019-03-05T11:30:20.706Z,915.85
2019-03-05T11:31:20.666Z,915.84
2019-03-05T11:32:20.645Z,915.86
2019-03-05T11:33:20.623Z,915.81
2019-03-05T11:34:20.578Z,915.83
2019-03-05T11:35:20.547Z,915.87
2019-03-05T11:36:20.509Z,915.84
2019-03-05T11:37:20.626Z,915.80
2019-03-05T11:38:20.436Z,915.86
2019-03-05T11:39:20.395Z,915.84
2019-03-05T11:40:21.330Z,915.84
2019-03-05T11:41:20.345Z,915.83
2019-03-05T11:42:20.883Z,915.82
2019-03-05T11:43:20.264Z,915.80
2019-03-05T11:44:20.254Z,915.81
2019-03-05T11:45:20.205Z,915.82
2019-03-05T11:46:20.165Z,915.82
2019-03-05T11:47:20.126Z,915.79
2019-03-05T11:48:20.100Z,915.86
2019-03-05T11:49:20.067Z,915.82
2019-03-05T11:50:20.037Z,915.82
2019-03-05T11:51:20.012Z,915.83
2019-03-05T11:52:19.988Z,915.85
2019-03-05T11:53:19.935Z,915.82
2019-03-05T11:54:19.895Z,915.87
2019-03-05T11:55:19.879Z,915.88
2019-03-05T11:56:19.846Z,915.83
2019-03-05T11:57:19.816Z,915.86
2019-03-05T11:58:19.777Z,915.79
2019-03-05T11:59:19.751Z,915.82
2019-03-05T12:00:19.754Z,915.82
2019-03-05T12:01:19.676Z,915.78
2019-03-05T12:02:22.005Z,915.76
2019-03-05T12:03:19.626Z,915.77
2019-03-05T12:04:19.575Z,915.77
2019-03-05T12:05:19.550Z,915.78
2019-03-05T12:06:19.541Z,915.79
2019-03-05T12:07:19.462Z,915.81
2019-03-05T12:08:19.475Z,915.79
2019-03-05T12:09:19.414Z,915.81
2019-03-05T12:10:19.739Z,915.79
2019-03-05T12:11:19.334Z,915.81
2019-03-05T12:12:19.308Z,915.81
2019-03-05T12:13:19.288Z,915.77
2019-03-05T12:14:19.267Z,915.82
2019-03-05T12:15:19.216Z,915.79
2019-03-05T12:16:19.169Z,915.79
2019-03-05T12:17:19.140Z,915.75
2019-03-05T12:18:19.168Z,915.79
2019-03-05T12:19:19.065Z,915.81
2019-03-05T12:20:19.046Z,915.80
2019-03-05T12:21:19.025Z,915.83
2019-03-05T12:22:18.965Z,915.82
2019-03-05T12:23:18.944Z,915.80
2019-03-05T12:24:19.922Z,915.83
2019-03-05T12:25:18.882Z,915.83
2019-03-05T12:26:18.860Z,915.81
2019-03-05T12:28:18.793Z,915.84
2019-03-05T12:29:18.736Z,915.86
2019-03-05T12:30:18.718Z,915.85
2019-03-05T12:31:18.681Z,915.83
2019-03-05T12:32:18.655Z,915.81
2019-03-05T12:33:18.608Z,915.82
2019-03-05T12:34:18.579Z,915.82
2019-03-05T12:35:18.547Z,915.80
2019-03-05T12:36:18.516Z,915.80